createdAt,value
2022-12-15T00:01:03.592Z,144.50
2022-12-15T00:04:48.130Z,135.90
2022-12-15T00:08:50.032Z,131.50
2022-12-15T00:12:34.388Z,131.20
2022-12-15T00:16:19.079Z,133.70
2022-12-15T00:20:03.940Z,137.80
2022-12-15T00:23:49.153Z,142.10
2022-12-15T00:27:33.304Z,137.40
2022-12-15T00:31:20.724Z,140.00
2022-12-15T00:35:05.427Z,141.50
2022-12-15T00:38:45.563Z,150.00
2022-12-15T00:42:12.988Z,147.10
2022-12-15T00:45:57.516Z,159.50
2022-12-15T00:49:41.796Z,143.90
2022-12-15T00:53:27.571Z,149.20
2022-12-15T00:57:12.062Z,170.50
2022-12-15T01:00:56.209Z,150.10
2022-12-15T01:04:40.684Z,153.00
2022-12-15T01:08:25.285Z,152.70
2022-12-15T01:12:12.376Z,146.40
2022-12-15T01:15:59.700Z,148.10
2022-12-15T01:19:44.053Z,148.70
2022-12-15T01:23:11.067Z,142.40
2022-12-15T01:26:37.786Z,143.60
2022-12-15T01:30:05.147Z,148.40
2022-12-15T01:33:32.556Z,152.00
2022-12-15T01:36:59.619Z,158.60
2022-12-15T01:40:46.090Z,159.90
2022-12-15T01:44:22.419Z,155.20
2022-12-15T01:47:49.380Z,152.80
2022-12-15T01:51:30.003Z,155.70
2022-12-15T01:54:59.304Z,149.60
2022-12-15T01:58:27.062Z,153.30
2022-12-15T02:01:54.029Z,154.60
2022-12-15T02:05:23.037Z,155.40
2022-12-15T02:08:52.280Z,150.10
2022-12-15T02:12:28.793Z,155.50
2022-12-15T02:16:03.601Z,148.30
2022-12-15T02:20:10.469Z,149.50
2022-12-15T02:24:15.956Z,147.50
2022-12-15T02:27:55.245Z,139.60
2022-12-15T02:31:51.228Z,152.00
2022-12-15T02:35:29.863Z,149.10
2022-12-15T02:38:57.062Z,154.10
2022-12-15T02:42:26.161Z,141.60
2022-12-15T02:46:04.292Z,145.20
2022-12-15T02:49:39.353Z,146.90
2022-12-15T02:53:22.973Z,157.60
2022-12-15T02:56:59.803Z,115.80
2022-12-15T03:00:29.325Z,147.30
2022-12-15T03:03:59.355Z,146.40
2022-12-15T03:07:28.597Z,153.10
2022-12-15T03:10:58.257Z,145.10
2022-12-15T03:14:26.363Z,153.10
2022-12-15T03:17:53.559Z,150.50
2022-12-15T03:21:20.795Z,131.30
2022-12-15T03:24:48.687Z,147.80
2022-12-15T03:28:15.840Z,144.70
2022-12-15T03:31:42.833Z,146.30
2022-12-15T03:35:11.223Z,143.10
2022-12-15T03:38:37.925Z,134.70
2022-12-15T03:42:04.512Z,139.40
2022-12-15T03:45:31.762Z,145.80
2022-12-15T03:48:58.777Z,146.00
2022-12-15T03:52:25.373Z,131.30
2022-12-15T03:55:52.175Z,150.50
2022-12-15T03:59:18.584Z,143.70
2022-12-15T04:02:46.164Z,139.40
2022-12-15T04:06:12.910Z,139.20
2022-12-15T04:09:39.798Z,143.10
2022-12-15T04:13:09.127Z,134.90
2022-12-15T04:16:36.120Z,133.50
2022-12-15T04:20:11.986Z,151.60
2022-12-15T04:23:42.278Z,146.50
2022-12-15T04:27:26.609Z,145.90
2022-12-15T04:31:15.148Z,146.30
2022-12-15T04:34:59.536Z,166.40
2022-12-15T04:38:49.988Z,164.30
2022-12-15T04:42:35.983Z,162.90
2022-12-15T04:46:20.502Z,166.50
2022-12-15T04:50:04.913Z,164.20
2022-12-15T04:53:49.764Z,151.20
2022-12-15T04:57:34.255Z,150.30
2022-12-15T05:01:19.013Z,153.40
2022-12-15T05:05:03.430Z,164.20
2022-12-15T05:08:50.278Z,156.10
2022-12-15T05:12:34.940Z,157.10
2022-12-15T05:16:20.854Z,164.10
2022-12-15T05:20:13.009Z,180.40
2022-12-15T05:23:57.157Z,174.10
2022-12-15T05:27:43.094Z,169.40
2022-12-15T05:31:29.995Z,138.90
2022-12-15T05:34:56.583Z,157.40
2022-12-15T05:38:23.634Z,186.70
2022-12-15T05:41:49.872Z,154.20
2022-12-15T05:45:16.329Z,160.90
2022-12-15T05:48:43.562Z,154.80
2022-12-15T05:52:10.933Z,188.00
2022-12-15T05:55:37.456Z,176.20
2022-12-15T05:59:04.658Z,189.30
2022-12-15T06:02:32.927Z,166.90
2022-12-15T06:06:00.740Z,175.40
2022-12-15T06:09:29.270Z,184.50
2022-12-15T06:12:56.124Z,177.40
2022-12-15T06:16:33.572Z,174.30
2022-12-15T06:20:00.450Z,164.70
2022-12-15T06:23:29.777Z,163.70
2022-12-15T06:26:56.509Z,171.00
2022-12-15T06:30:23.123Z,172.60
2022-12-15T06:33:52.522Z,164.90
2022-12-15T06:37:22.844Z,192.50
2022-12-15T06:40:55.993Z,168.30
2022-12-15T06:44:22.194Z,170.80
2022-12-15T06:47:49.965Z,166.50
2022-12-15T06:51:17.812Z,177.70
2022-12-15T06:54:44.326Z,168.00
2022-12-15T06:58:12.558Z,173.20
2022-12-15T07:01:39.731Z,169.40
2022-12-15T07:05:07.170Z,157.40
2022-12-15T07:08:40.976Z,158.50
2022-12-15T07:12:08.864Z,164.10
2022-12-15T07:15:37.113Z,173.20
2022-12-15T07:19:04.073Z,177.80
2022-12-15T07:22:31.210Z,175.30
2022-12-15T07:25:58.346Z,169.60
2022-12-15T07:29:28.340Z,173.20
2022-12-15T07:32:55.115Z,175.90
2022-12-15T07:36:21.909Z,166.90
2022-12-15T07:39:48.841Z,178.20
2022-12-15T07:43:15.756Z,175.20
2022-12-15T07:46:49.345Z,174.80
2022-12-15T07:50:16.264Z,161.80
2022-12-15T07:53:43.087Z,167.90
2022-12-15T07:57:09.747Z,164.40
2022-12-15T08:00:38.016Z,166.60
2022-12-15T08:04:07.263Z,161.50
2022-12-15T08:07:34.026Z,162.20
2022-12-15T08:11:01.084Z,157.70
2022-12-15T08:14:29.130Z,164.20
2022-12-15T08:17:56.314Z,167.90
2022-12-15T08:21:23.340Z,157.50
2022-12-15T08:24:50.037Z,161.60
2022-12-15T08:28:17.925Z,158.80
2022-12-15T08:31:44.718Z,169.70
2022-12-15T08:35:38.944Z,159.90
2022-12-15T08:39:01.896Z,167.90
2022-12-15T08:42:28.041Z,158.70
2022-12-15T08:45:56.371Z,165.70
2022-12-15T08:49:23.448Z,171.10
2022-12-15T08:53:13.768Z,162.60
2022-12-15T08:56:37.327Z,165.40
2022-12-15T09:00:07.644Z,177.50
2022-12-15T09:03:37.711Z,166.40
2022-12-15T09:07:03.900Z,164.70
2022-12-15T09:10:30.750Z,168.60
2022-12-15T09:13:57.808Z,172.80
2022-12-15T09:17:24.702Z,162.70
2022-12-15T09:20:51.545Z,165.90
2022-12-15T09:24:28.914Z,165.30
2022-12-15T09:28:00.880Z,173.00
2022-12-15T09:31:29.813Z,168.20
2022-12-15T09:34:57.013Z,170.30
2022-12-15T09:38:24.342Z,157.50
2022-12-15T09:41:57.188Z,157.90
2022-12-15T09:45:28.419Z,165.70
2022-12-15T09:49:04.675Z,157.80
2022-12-15T09:52:34.363Z,155.90
2022-12-15T09:56:09.998Z,167.80
2022-12-15T09:59:48.113Z,170.20
2022-12-15T10:03:31.921Z,160.20
2022-12-15T10:07:07.945Z,167.10
2022-12-15T10:10:41.594Z,172.70
2022-12-15T10:14:17.355Z,172.00
2022-12-15T10:17:51.011Z,171.50
2022-12-15T10:21:17.670Z,166.60
2022-12-15T10:28:51.546Z,191.10
2022-12-15T10:32:25.426Z,182.10
2022-12-15T10:35:54.909Z,176.90
2022-12-15T10:39:22.673Z,187.80
2022-12-15T10:42:52.353Z,171.00
2022-12-15T10:46:22.520Z,184.40
2022-12-15T10:49:49.394Z,188.30
2022-12-15T10:53:40.705Z,169.10
2022-12-15T10:57:20.660Z,194.20
2022-12-15T11:00:50.888Z,189.30
2022-12-15T11:04:32.228Z,189.70
2022-12-15T11:08:16.549Z,199.80
2022-12-15T11:12:12.109Z,171.40
2022-12-15T11:15:51.391Z,166.70
2022-12-15T11:19:25.731Z,177.60
2022-12-15T11:22:59.837Z,199.30
2022-12-15T11:26:44.562Z,179.70
2022-12-15T11:30:19.101Z,184.90
2022-12-15T11:33:55.011Z,182.10
2022-12-15T11:37:40.559Z,183.00
2022-12-15T11:41:17.335Z,187.90
2022-12-15T11:44:59.134Z,194.90
2022-12-15T11:48:33.933Z,216.60
2022-12-15T11:52:08.717Z,213.10
2022-12-15T11:55:47.622Z,214.10
2022-12-15T11:59:35.388Z,218.60
2022-12-15T12:03:17.915Z,214.90
2022-12-15T12:06:55.760Z,199.60
2022-12-15T12:10:32.938Z,204.10
2022-12-15T12:14:13.743Z,199.80
2022-12-15T12:17:46.803Z,190.80
2022-12-15T12:24:45.203Z,192.50
2022-12-15T12:28:23.004Z,194.50
2022-12-15T12:32:04.581Z,195.60
2022-12-15T12:35:39.241Z,191.30
2022-12-15T12:39:06.813Z,194.40
2022-12-15T12:42:42.733Z,189.80
2022-12-15T12:46:18.083Z,191.30
2022-12-15T12:49:50.198Z,196.60
2022-12-15T12:53:33.437Z,198.00
2022-12-15T12:57:01.107Z,204.40
2022-12-15T13:00:30.098Z,213.40
2022-12-15T13:04:11.968Z,209.70
2022-12-15T13:07:41.047Z,212.20
2022-12-15T13:11:38.614Z,202.90
2022-12-15T13:15:14.525Z,204.20
2022-12-15T13:18:58.728Z,209.00
2022-12-15T13:22:32.856Z,204.90
2022-12-15T13:26:15.817Z,205.60
2022-12-15T13:30:01.096Z,224.30
2022-12-15T13:33:29.159Z,198.70
2022-12-15T13:37:08.433Z,206.50
2022-12-15T13:40:54.251Z,205.40
2022-12-15T13:44:31.395Z,212.40
2022-12-15T13:48:11.440Z,226.60
2022-12-15T13:51:51.532Z,218.10
2022-12-15T13:55:27.830Z,202.00
2022-12-15T13:59:02.648Z,209.10
2022-12-15T14:02:38.508Z,190.20
2022-12-15T14:06:15.648Z,206.30
2022-12-15T14:09:44.796Z,185.60
2022-12-15T14:13:19.069Z,177.10
2022-12-15T14:20:22.335Z,166.00
2022-12-15T14:24:28.533Z,148.50
2022-12-15T14:27:37.085Z,146.70
2022-12-15T14:31:07.400Z,145.20
2022-12-15T14:34:41.571Z,144.40
2022-12-15T14:38:13.959Z,132.50
2022-12-15T14:45:35.978Z,116.80
2022-12-15T14:49:06.090Z,116.30
2022-12-15T14:52:36.665Z,122.80
2022-12-15T14:56:16.637Z,114.20
2022-12-15T14:59:48.761Z,118.20
2022-12-15T15:03:10.316Z,127.40
2022-12-15T15:03:10.852Z,170.40
2022-12-15T15:03:28.259Z,118.40
2022-12-15T15:06:59.393Z,129.60
2022-12-15T15:10:31.673Z,122.60
2022-12-15T15:14:00.869Z,113.70
2022-12-15T15:17:32.722Z,124.70
2022-12-15T15:21:04.676Z,120.40
2022-12-15T15:24:39.916Z,120.00
2022-12-15T15:28:16.541Z,125.10
2022-12-15T15:31:45.094Z,117.00
2022-12-15T15:35:12.250Z,115.00
2022-12-15T15:38:42.731Z,109.40
2022-12-15T15:42:14.603Z,107.40
2022-12-15T15:45:43.204Z,110.40
2022-12-15T15:49:16.762Z,109.70
2022-12-15T15:52:45.105Z,110.70
2022-12-15T15:56:14.235Z,112.10
2022-12-15T15:59:42.818Z,110.80
2022-12-15T16:03:11.342Z,109.30
2022-12-15T16:06:46.775Z,112.40
2022-12-15T16:10:19.678Z,115.90
2022-12-15T16:13:47.430Z,124.20
2022-12-15T16:17:16.005Z,140.10
2022-12-15T16:20:49.137Z,109.00
2022-12-15T16:24:19.908Z,106.70
2022-12-15T16:27:48.019Z,105.20
2022-12-15T16:31:41.480Z,98.90
2022-12-15T16:35:10.939Z,104.10
2022-12-15T16:38:38.696Z,100.90
2022-12-15T16:42:13.330Z,97.80
2022-12-15T16:45:43.996Z,109.00
2022-12-15T16:49:11.297Z,140.90
2022-12-15T16:52:45.023Z,158.60
2022-12-15T16:56:16.717Z,140.20
2022-12-15T16:59:43.760Z,136.60
2022-12-15T17:03:15.789Z,110.20
2022-12-15T17:06:42.934Z,76.10
2022-12-15T17:10:16.857Z,90.70
2022-12-15T17:13:46.018Z,110.40
2022-12-15T17:17:37.330Z,102.20
2022-12-15T17:21:14.705Z,101.40
2022-12-15T17:24:44.661Z,103.60
2022-12-15T17:28:18.630Z,87.10
2022-12-15T17:35:13.791Z,83.50
2022-12-15T17:38:41.574Z,94.00
2022-12-15T17:42:19.731Z,102.30
2022-12-15T17:45:48.199Z,106.30
2022-12-15T17:49:15.641Z,105.70
2022-12-15T17:52:44.197Z,97.50
2022-12-15T17:56:13.140Z,98.40
2022-12-15T17:59:39.566Z,107.20
2022-12-15T18:03:06.770Z,100.30
2022-12-15T18:06:34.301Z,109.40
2022-12-15T18:10:01.131Z,112.00
2022-12-15T18:13:34.907Z,114.70
2022-12-15T18:17:02.162Z,107.20
2022-12-15T18:20:29.103Z,114.80
2022-12-15T18:23:56.148Z,118.80
2022-12-15T18:27:26.357Z,114.10
2022-12-15T18:30:54.943Z,117.90
2022-12-15T18:34:22.829Z,126.40
2022-12-15T18:37:50.718Z,116.90
2022-12-15T18:41:21.349Z,116.70
2022-12-15T18:44:51.145Z,130.10
2022-12-15T18:48:21.232Z,121.80
2022-12-15T18:51:50.666Z,118.60
2022-12-15T18:55:25.957Z,121.90
2022-12-15T18:58:52.805Z,113.70
2022-12-15T19:02:20.132Z,123.30
2022-12-15T19:05:48.109Z,119.60
2022-12-15T19:09:21.852Z,125.20
2022-12-15T19:12:50.876Z,117.70
2022-12-15T19:16:22.606Z,127.60
2022-12-15T19:20:06.704Z,114.10
2022-12-15T19:23:34.043Z,130.60
2022-12-15T19:27:01.750Z,112.80
2022-12-15T19:30:31.260Z,123.80
2022-12-15T19:33:59.803Z,115.90
2022-12-15T19:37:31.190Z,115.00
2022-12-15T19:40:58.960Z,111.90
2022-12-15T19:44:26.442Z,116.30
2022-12-15T19:47:54.456Z,117.70
2022-12-15T19:51:23.459Z,120.80
2022-12-15T19:54:52.064Z,126.60
2022-12-15T19:58:32.122Z,124.70
2022-12-15T20:02:01.520Z,118.40
2022-12-15T20:05:33.928Z,132.30
2022-12-15T20:09:03.398Z,143.40
2022-12-15T20:12:31.640Z,126.60
2022-12-15T20:16:00.324Z,123.00
2022-12-15T20:19:28.705Z,116.20
2022-12-15T20:23:06.959Z,110.70
2022-12-15T20:26:36.798Z,107.50
2022-12-15T20:30:06.646Z,108.40
2022-12-15T20:33:34.191Z,116.20
2022-12-15T20:37:01.627Z,109.60
2022-12-15T20:40:31.188Z,109.00
2022-12-15T20:44:01.400Z,104.10
2022-12-15T20:47:32.434Z,109.00
2022-12-15T20:51:09.505Z,108.10
2022-12-15T20:54:37.979Z,104.40
2022-12-15T20:58:11.444Z,109.20
2022-12-15T21:01:42.267Z,101.70
2022-12-15T21:05:13.866Z,101.00
2022-12-15T21:12:20.984Z,101.60
2022-12-15T21:15:50.716Z,106.50
2022-12-15T21:19:21.672Z,99.20
2022-12-15T21:26:22.374Z,103.80
2022-12-15T21:29:52.587Z,102.50
2022-12-15T21:33:35.262Z,101.50
2022-12-15T21:37:03.895Z,105.70
2022-12-15T21:40:36.555Z,109.30
2022-12-15T21:44:16.161Z,124.00
2022-12-15T21:48:02.664Z,112.00
2022-12-15T21:51:34.842Z,112.30
2022-12-15T21:55:01.593Z,122.60
2022-12-15T21:58:28.385Z,120.20
2022-12-15T22:01:58.339Z,120.70
2022-12-15T22:05:30.455Z,121.80
2022-12-15T22:09:01.860Z,118.00
2022-12-15T22:12:28.823Z,121.10
2022-12-15T22:15:56.073Z,119.50
2022-12-15T22:19:24.110Z,114.30
2022-12-15T22:22:51.680Z,109.40
2022-12-15T22:26:23.908Z,105.70
2022-12-15T22:29:56.171Z,104.60
2022-12-15T22:33:32.430Z,107.50
2022-12-15T22:37:02.475Z,102.20
2022-12-15T22:40:38.073Z,114.10
2022-12-15T22:44:15.642Z,113.90
2022-12-15T22:47:45.453Z,108.50
2022-12-15T22:51:17.186Z,109.70
2022-12-15T22:54:54.320Z,119.10
2022-12-15T22:58:28.707Z,102.30
2022-12-15T23:02:02.988Z,116.90
2022-12-15T23:05:42.899Z,109.10
2022-12-15T23:09:10.553Z,130.10
2022-12-15T23:12:44.100Z,170.50
2022-12-15T23:16:22.513Z,174.20
2022-12-15T23:19:55.255Z,171.70
2022-12-15T23:23:26.025Z,151.50
2022-12-15T23:26:55.837Z,134.40
2022-12-15T23:30:22.640Z,119.70
2022-12-15T23:33:53.530Z,130.40
2022-12-15T23:37:20.923Z,126.00
2022-12-15T23:40:53.093Z,116.70
2022-12-15T23:44:21.379Z,109.40
2022-12-15T23:47:55.663Z,104.80
2022-12-15T23:51:24.842Z,109.40
2022-12-15T23:55:00.097Z,105.10
2022-12-15T23:58:27.169Z,109.40
